Niagara, North Dakota
Current Conditions -  °F | °C
As of 6:58 PM on Wednesday 26 Nov 2014 (Local Time) from KRDR Reporting Station
Clear Clear  
Wind Chill: -21°   Ceiling: Unl
Heat Index: -10°   Visibility: 10mi
Dew Point: -14°   Wind: 5mph
Humidity: 80%   Direction: 360°N
Pressure: 30.53"   Gusts: NA
Location:  48°N, 97.87°W
Report Text: KRDR 270058Z AUTO 36004KT 10SM CLR M23/M26 A3053 RMK AO2 SLP374 T12311257
Loading
Personal Weather Stations






























Interactive Weather Map New forecast layout! Learn more

10-Day Weather Forecast

Advertisements
Track Severe Weather on mobile